sensor_id;sensor_type;location;lat;lon;timestamp;P1;durP1;ratioP1;P2;durP2;ratioP2
7239;SDS011;3661;53.288;10.458;2023-08-07T00:00:44;1771.18;;;999.90;;
7239;SDS011;3661;53.288;10.458;2023-08-07T00:03:16;1770.77;;;999.90;;
7239;SDS011;3661;53.288;10.458;2023-08-07T00:05:50;1755.05;;;999.90;;
7239;SDS011;3661;53.288;10.458;2023-08-07T00:08:23;1767.32;;;999.90;;
7239;SDS011;3661;53.288;10.458;2023-08-07T00:11:03;1769.73;;;999.90;;
7239;SDS011;3661;53.288;10.458;2023-08-07T00:13:38;1763.43;;;999.90;;
7239;SDS011;3661;53.288;10.458;2023-08-07T00:16:12;1794.18;;;999.90;;
7239;SDS011;3661;53.288;10.458;2023-08-07T00:18:44;1749.32;;;999.90;;
7239;SDS011;3661;53.288;10.458;2023-08-07T00:21:18;1769.30;;;999.90;;
7239;SDS011;3661;53.288;10.458;2023-08-07T00:23:50;1758.95;;;999.90;;
7239;SDS011;3661;53.288;10.458;2023-08-07T00:26:22;1772.60;;;999.90;;
7239;SDS011;3661;53.288;10.458;2023-08-07T00:28:55;1755.63;;;999.90;;
7239;SDS011;3661;53.288;10.458;2023-08-07T00:31:28;1764.85;;;999.90;;
7239;SDS011;3661;53.288;10.458;2023-08-07T00:34:01;1752.90;;;999.90;;
7239;SDS011;3661;53.288;10.458;2023-08-07T00:36:35;1742.57;;;999.90;;
7239;SDS011;3661;53.288;10.458;2023-08-07T00:39:07;1768.07;;;999.90;;
7239;SDS011;3661;53.288;10.458;2023-08-07T00:41:39;1734.53;;;999.90;;
7239;SDS011;3661;53.288;10.458;2023-08-07T00:44:12;1760.15;;;999.90;;
7239;SDS011;3661;53.288;10.458;2023-08-07T00:46:44;1756.30;;;999.90;;
7239;SDS011;3661;53.288;10.458;2023-08-07T00:49:16;1735.60;;;999.90;;
7239;SDS011;3661;53.288;10.458;2023-08-07T00:51:51;1751.50;;;999.90;;
7239;SDS011;3661;53.288;10.458;2023-08-07T00:54:24;1751.22;;;999.90;;
7239;SDS011;3661;53.288;10.458;2023-08-07T00:56:57;1757.45;;;999.90;;
7239;SDS011;3661;53.288;10.458;2023-08-07T00:59:39;1755.77;;;999.90;;
7239;SDS011;3661;53.288;10.458;2023-08-07T01:02:13;1763.85;;;999.90;;
7239;SDS011;3661;53.288;10.458;2023-08-07T01:04:45;1753.40;;;999.90;;
7239;SDS011;3661;53.288;10.458;2023-08-07T01:07:19;1753.90;;;999.90;;
7239;SDS011;3661;53.288;10.458;2023-08-07T01:09:51;1748.93;;;999.90;;
7239;SDS011;3661;53.288;10.458;2023-08-07T01:12:25;1749.47;;;999.90;;
7239;SDS011;3661;53.288;10.458;2023-08-07T01:15:04;1753.22;;;999.90;;
7239;SDS011;3661;53.288;10.458;2023-08-07T01:17:44;1761.28;;;999.90;;
7239;SDS011;3661;53.288;10.458;2023-08-07T01:20:18;1759.53;;;999.90;;
7239;SDS011;3661;53.288;10.458;2023-08-07T01:22:51;1735.65;;;999.90;;
7239;SDS011;3661;53.288;10.458;2023-08-07T01:25:25;1758.68;;;999.90;;
7239;SDS011;3661;53.288;10.458;2023-08-07T01:28:00;1726.25;;;999.90;;
7239;SDS011;3661;53.288;10.458;2023-08-07T01:30:38;1744.93;;;999.90;;
7239;SDS011;3661;53.288;10.458;2023-08-07T01:33:14;1753.18;;;999.90;;
7239;SDS011;3661;53.288;10.458;2023-08-07T01:35:55;1741.50;;;999.90;;
7239;SDS011;3661;53.288;10.458;2023-08-07T01:38:32;1741.83;;;999.90;;
7239;SDS011;3661;53.288;10.458;2023-08-07T01:41:05;1746.18;;;999.90;;
7239;SDS011;3661;53.288;10.458;2023-08-07T01:43:38;1751.78;;;999.90;;
7239;SDS011;3661;53.288;10.458;2023-08-07T01:46:13;1747.63;;;999.90;;
7239;SDS011;3661;53.288;10.458;2023-08-07T01:48:45;1747.13;;;999.90;;
7239;SDS011;3661;53.288;10.458;2023-08-07T01:51:20;1729.95;;;999.90;;
7239;SDS011;3661;53.288;10.458;2023-08-07T01:53:53;1732.63;;;999.90;;
7239;SDS011;3661;53.288;10.458;2023-08-07T01:56:27;1739.72;;;999.90;;
7239;SDS011;3661;53.288;10.458;2023-08-07T01:59:01;1733.00;;;999.90;;
7239;SDS011;3661;53.288;10.458;2023-08-07T02:01:33;1738.70;;;999.90;;
7239;SDS011;3661;53.288;10.458;2023-08-07T02:04:08;1745.75;;;999.90;;
7239;SDS011;3661;53.288;10.458;2023-08-07T02:06:43;1735.30;;;999.90;;
7239;SDS011;3661;53.288;10.458;2023-08-07T02:09:18;1730.13;;;999.90;;
7239;SDS011;3661;53.288;10.458;2023-08-07T02:11:51;1751.28;;;999.90;;
7239;SDS011;3661;53.288;10.458;2023-08-07T02:14:23;1753.50;;;999.90;;
7239;SDS011;3661;53.288;10.458;2023-08-07T02:16:56;1730.38;;;999.90;;
7239;SDS011;3661;53.288;10.458;2023-08-07T02:19:31;1739.65;;;999.90;;
7239;SDS011;3661;53.288;10.458;2023-08-07T02:22:03;1746.85;;;999.90;;
7239;SDS011;3661;53.288;10.458;2023-08-07T02:24:41;1708.95;;;999.90;;
7239;SDS011;3661;53.288;10.458;2023-08-07T02:27:13;1723.60;;;999.90;;
7239;SDS011;3661;53.288;10.458;2023-08-07T02:29:46;1723.05;;;999.90;;
7239;SDS011;3661;53.288;10.458;2023-08-07T02:32:21;1742.60;;;999.90;;
7239;SDS011;3661;53.288;10.458;2023-08-07T02:34:54;1724.05;;;999.90;;
7239;SDS011;3661;53.288;10.458;2023-08-07T02:37:26;1721.35;;;999.90;;
7239;SDS011;3661;53.288;10.458;2023-08-07T02:40:04;1716.32;;;999.90;;
7239;SDS011;3661;53.288;10.458;2023-08-07T02:42:37;1725.47;;;999.90;;
7239;SDS011;3661;53.288;10.458;2023-08-07T02:45:09;1714.00;;;999.90;;
7239;SDS011;3661;53.288;10.458;2023-08-07T02:47:41;1714.97;;;999.90;;
7239;SDS011;3661;53.288;10.458;2023-08-07T02:50:14;1698.53;;;999.90;;
7239;SDS011;3661;53.288;10.458;2023-08-07T02:52:46;1726.68;;;999.90;;
7239;SDS011;3661;53.288;10.458;2023-08-07T02:55:20;1711.77;;;999.90;;
7239;SDS011;3661;53.288;10.458;2023-08-07T02:57:53;1727.35;;;999.90;;
7239;SDS011;3661;53.288;10.458;2023-08-07T03:00:26;1701.07;;;999.90;;
7239;SDS011;3661;53.288;10.458;2023-08-07T03:02:58;1714.47;;;999.90;;
7239;SDS011;3661;53.288;10.458;2023-08-07T03:05:33;1717.90;;;999.90;;
7239;SDS011;3661;53.288;10.458;2023-08-07T03:08:08;1714.18;;;999.90;;
7239;SDS011;3661;53.288;10.458;2023-08-07T03:10:42;1721.30;;;999.90;;
7239;SDS011;3661;53.288;10.458;2023-08-07T03:13:22;1729.95;;;999.90;;
7239;SDS011;3661;53.288;10.458;2023-08-07T03:16:01;1729.75;;;999.90;;
7239;SDS011;3661;53.288;10.458;2023-08-07T03:18:37;1707.28;;;999.90;;
7239;SDS011;3661;53.288;10.458;2023-08-07T03:21:10;1710.23;;;999.90;;
7239;SDS011;3661;53.288;10.458;2023-08-07T03:23:42;1697.68;;;999.90;;
7239;SDS011;3661;53.288;10.458;2023-08-07T03:26:17;1704.47;;;999.90;;
7239;SDS011;3661;53.288;10.458;2023-08-07T03:28:51;1698.10;;;999.90;;
7239;SDS011;3661;53.288;10.458;2023-08-07T03:31:23;1714.60;;;999.90;;
7239;SDS011;3661;53.288;10.458;2023-08-07T03:33:55;1697.68;;;999.90;;
7239;SDS011;3661;53.288;10.458;2023-08-07T03:36:28;1699.35;;;999.90;;
7239;SDS011;3661;53.288;10.458;2023-08-07T03:39:00;1691.20;;;999.90;;
7239;SDS011;3661;53.288;10.458;2023-08-07T03:41:34;1702.88;;;999.90;;
7239;SDS011;3661;53.288;10.458;2023-08-07T03:44:06;1692.80;;;999.90;;
7239;SDS011;3661;53.288;10.458;2023-08-07T03:46:46;1699.57;;;999.90;;
7239;SDS011;3661;53.288;10.458;2023-08-07T03:49:22;1697.28;;;999.90;;
7239;SDS011;3661;53.288;10.458;2023-08-07T03:51:54;1719.22;;;999.90;;
7239;SDS011;3661;53.288;10.458;2023-08-07T03:54:29;1682.90;;;999.90;;
7239;SDS011;3661;53.288;10.458;2023-08-07T03:57:04;1706.90;;;999.90;;
7239;SDS011;3661;53.288;10.458;2023-08-07T03:59:38;1718.93;;;999.90;;
7239;SDS011;3661;53.288;10.458;2023-08-07T04:02:10;1714.97;;;999.90;;
7239;SDS011;3661;53.288;10.458;2023-08-07T04:04:42;1687.88;;;999.90;;
7239;SDS011;3661;53.288;10.458;2023-08-07T04:07:16;1687.72;;;999.90;;
7239;SDS011;3661;53.288;10.458;2023-08-07T04:09:49;1709.20;;;999.90;;
7239;SDS011;3661;53.288;10.458;2023-08-07T04:12:22;1706.60;;;999.90;;
7239;SDS011;3661;53.288;10.458;2023-08-07T04:14:55;1691.45;;;999.90;;
7239;SDS011;3661;53.288;10.458;2023-08-07T04:17:27;1699.90;;;999.90;;
7239;SDS011;3661;53.288;10.458;2023-08-07T04:19:59;1704.53;;;999.90;;
7239;SDS011;3661;53.288;10.458;2023-08-07T04:22:31;1694.93;;;999.90;;
7239;SDS011;3661;53.288;10.458;2023-08-07T04:25:03;1703.93;;;999.90;;
7239;SDS011;3661;53.288;10.458;2023-08-07T04:27:37;1691.23;;;999.90;;
7239;SDS011;3661;53.288;10.458;2023-08-07T04:30:10;1693.00;;;999.90;;
7239;SDS011;3661;53.288;10.458;2023-08-07T04:32:43;1679.97;;;999.90;;
7239;SDS011;3661;53.288;10.458;2023-08-07T04:35:15;1698.47;;;999.90;;
7239;SDS011;3661;53.288;10.458;2023-08-07T04:37:47;1696.53;;;999.90;;
7239;SDS011;3661;53.288;10.458;2023-08-07T04:40:19;1695.37;;;999.90;;
7239;SDS011;3661;53.288;10.458;2023-08-07T04:42:54;1700.32;;;999.90;;
7239;SDS011;3661;53.288;10.458;2023-08-07T04:45:26;1706.20;;;999.90;;
7239;SDS011;3661;53.288;10.458;2023-08-07T04:47:59;1688.05;;;999.90;;
7239;SDS011;3661;53.288;10.458;2023-08-07T04:50:32;1687.82;;;999.90;;
7239;SDS011;3661;53.288;10.458;2023-08-07T04:53:06;1706.35;;;999.90;;
7239;SDS011;3661;53.288;10.458;2023-08-07T04:55:39;1687.70;;;999.90;;
7239;SDS011;3661;53.288;10.458;2023-08-07T04:58:14;1688.15;;;999.90;;
7239;SDS011;3661;53.288;10.458;2023-08-07T05:00:46;1692.13;;;999.90;;
7239;SDS011;3661;53.288;10.458;2023-08-07T05:03:18;1691.53;;;999.90;;
7239;SDS011;3661;53.288;10.458;2023-08-07T05:05:50;1699.00;;;999.90;;
7239;SDS011;3661;53.288;10.458;2023-08-07T05:08:28;1708.90;;;999.90;;
7239;SDS011;3661;53.288;10.458;2023-08-07T05:11:01;1695.23;;;999.90;;
7239;SDS011;3661;53.288;10.458;2023-08-07T05:13:34;1706.78;;;999.90;;
7239;SDS011;3661;53.288;10.458;2023-08-07T05:16:06;1697.47;;;999.90;;
7239;SDS011;3661;53.288;10.458;2023-08-07T05:18:39;1695.43;;;999.90;;
7239;SDS011;3661;53.288;10.458;2023-08-07T05:21:11;1694.55;;;999.90;;
7239;SDS011;3661;53.288;10.458;2023-08-07T05:23:44;1693.78;;;999.90;;
7239;SDS011;3661;53.288;10.458;2023-08-07T05:26:17;1699.65;;;999.90;;
7239;SDS011;3661;53.288;10.458;2023-08-07T05:28:51;1685.30;;;999.90;;
7239;SDS011;3661;53.288;10.458;2023-08-07T05:31:27;1711.90;;;999.90;;
7239;SDS011;3661;53.288;10.458;2023-08-07T05:34:01;1723.60;;;999.90;;
7239;SDS011;3661;53.288;10.458;2023-08-07T05:36:33;1712.72;;;999.90;;
7239;SDS011;3661;53.288;10.458;2023-08-07T05:39:06;1707.85;;;999.90;;
7239;SDS011;3661;53.288;10.458;2023-08-07T05:41:39;1730.93;;;999.90;;
7239;SDS011;3661;53.288;10.458;2023-08-07T05:44:12;1706.68;;;999.90;;
7239;SDS011;3661;53.288;10.458;2023-08-07T05:46:44;1714.57;;;999.90;;
7239;SDS011;3661;53.288;10.458;2023-08-07T05:49:16;1711.13;;;999.90;;
7239;SDS011;3661;53.288;10.458;2023-08-07T05:51:48;1734.18;;;999.90;;
7239;SDS011;3661;53.288;10.458;2023-08-07T05:54:21;1712.15;;;999.90;;
7239;SDS011;3661;53.288;10.458;2023-08-07T05:56:53;1714.55;;;999.90;;
7239;SDS011;3661;53.288;10.458;2023-08-07T05:59:27;1718.30;;;999.90;;
7239;SDS011;3661;53.288;10.458;2023-08-07T06:01:59;1717.07;;;999.90;;
7239;SDS011;3661;53.288;10.458;2023-08-07T06:04:32;1702.72;;;999.90;;
7239;SDS011;3661;53.288;10.458;2023-08-07T06:07:04;1714.75;;;999.90;;
7239;SDS011;3661;53.288;10.458;2023-08-07T06:09:37;1729.40;;;999.90;;
7239;SDS011;3661;53.288;10.458;2023-08-07T06:12:09;1730.27;;;999.90;;
7239;SDS011;3661;53.288;10.458;2023-08-07T06:14:42;1725.72;;;999.90;;
7239;SDS011;3661;53.288;10.458;2023-08-07T06:17:15;1733.82;;;999.90;;
7239;SDS011;3661;53.288;10.458;2023-08-07T06:19:47;1731.83;;;999.90;;
7239;SDS011;3661;53.288;10.458;2023-08-07T06:22:19;1752.70;;;999.90;;
7239;SDS011;3661;53.288;10.458;2023-08-07T06:24:51;1731.40;;;999.90;;
7239;SDS011;3661;53.288;10.458;2023-08-07T06:27:23;1734.93;;;999.90;;
7239;SDS011;3661;53.288;10.458;2023-08-07T06:29:57;1747.22;;;999.90;;
7239;SDS011;3661;53.288;10.458;2023-08-07T06:32:29;1743.47;;;999.90;;
7239;SDS011;3661;53.288;10.458;2023-08-07T06:35:02;1739.53;;;999.90;;
7239;SDS011;3661;53.288;10.458;2023-08-07T06:37:34;1752.65;;;999.90;;
7239;SDS011;3661;53.288;10.458;2023-08-07T06:40:07;1754.80;;;999.90;;
7239;SDS011;3661;53.288;10.458;2023-08-07T06:42:39;1743.32;;;999.90;;
7239;SDS011;3661;53.288;10.458;2023-08-07T06:45:13;1763.28;;;999.90;;
7239;SDS011;3661;53.288;10.458;2023-08-07T06:47:45;1756.03;;;999.90;;
7239;SDS011;3661;53.288;10.458;2023-08-07T06:50:18;1774.82;;;999.90;;
7239;SDS011;3661;53.288;10.458;2023-08-07T06:52:50;1756.70;;;999.90;;
7239;SDS011;3661;53.288;10.458;2023-08-07T06:55:22;1762.88;;;999.90;;
7239;SDS011;3661;53.288;10.458;2023-08-07T06:57:54;1787.32;;;999.90;;
7239;SDS011;3661;53.288;10.458;2023-08-07T07:00:28;1760.45;;;999.90;;
7239;SDS011;3661;53.288;10.458;2023-08-07T07:03:02;1782.20;;;999.90;;
7239;SDS011;3661;53.288;10.458;2023-08-07T07:05:34;1782.25;;;999.90;;
7239;SDS011;3661;53.288;10.458;2023-08-07T07:08:08;1787.32;;;999.90;;
7239;SDS011;3661;53.288;10.458;2023-08-07T07:10:40;1773.70;;;999.90;;
7239;SDS011;3661;53.288;10.458;2023-08-07T07:13:12;1785.18;;;999.90;;
7239;SDS011;3661;53.288;10.458;2023-08-07T07:15:45;1823.43;;;999.90;;
7239;SDS011;3661;53.288;10.458;2023-08-07T07:18:17;1812.75;;;999.90;;
7239;SDS011;3661;53.288;10.458;2023-08-07T07:20:55;1807.55;;;999.90;;
7239;SDS011;3661;53.288;10.458;2023-08-07T07:23:28;1814.40;;;999.90;;
7239;SDS011;3661;53.288;10.458;2023-08-07T07:26:01;1810.25;;;999.90;;
7239;SDS011;3661;53.288;10.458;2023-08-07T07:28:33;1795.72;;;999.90;;
7239;SDS011;3661;53.288;10.458;2023-08-07T07:31:06;1812.88;;;999.90;;
7239;SDS011;3661;53.288;10.458;2023-08-07T07:33:41;1825.22;;;999.90;;
7239;SDS011;3661;53.288;10.458;2023-08-07T07:36:15;1843.53;;;999.90;;
7239;SDS011;3661;53.288;10.458;2023-08-07T07:38:48;1827.53;;;999.90;;
7239;SDS011;3661;53.288;10.458;2023-08-07T07:41:21;1833.90;;;999.90;;
7239;SDS011;3661;53.288;10.458;2023-08-07T07:43:54;1834.25;;;999.90;;
7239;SDS011;3661;53.288;10.458;2023-08-07T07:46:28;1856.45;;;999.90;;
7239;SDS011;3661;53.288;10.458;2023-08-07T07:49:01;1836.53;;;999.90;;
7239;SDS011;3661;53.288;10.458;2023-08-07T07:51:35;1843.32;;;999.90;;
7239;SDS011;3661;53.288;10.458;2023-08-07T07:54:07;1842.82;;;999.90;;
7239;SDS011;3661;53.288;10.458;2023-08-07T07:56:39;1825.78;;;999.90;;
7239;SDS011;3661;53.288;10.458;2023-08-07T07:59:12;1814.82;;;999.90;;
7239;SDS011;3661;53.288;10.458;2023-08-07T08:01:45;1838.20;;;999.90;;
7239;SDS011;3661;53.288;10.458;2023-08-07T08:04:17;1841.15;;;999.90;;
7239;SDS011;3661;53.288;10.458;2023-08-07T08:06:50;1839.60;;;999.90;;
7239;SDS011;3661;53.288;10.458;2023-08-07T08:09:22;1855.10;;;999.90;;
7239;SDS011;3661;53.288;10.458;2023-08-07T08:11:54;1850.63;;;999.90;;
7239;SDS011;3661;53.288;10.458;2023-08-07T08:14:27;1850.05;;;999.90;;
7239;SDS011;3661;53.288;10.458;2023-08-07T08:17:00;1838.07;;;999.90;;
7239;SDS011;3661;53.288;10.458;2023-08-07T08:19:33;1856.63;;;999.90;;
7239;SDS011;3661;53.288;10.458;2023-08-07T08:22:05;1853.13;;;999.90;;
7239;SDS011;3661;53.288;10.458;2023-08-07T08:24:37;1854.10;;;999.90;;
7239;SDS011;3661;53.288;10.458;2023-08-07T08:27:09;1844.07;;;999.90;;
7239;SDS011;3661;53.288;10.458;2023-08-07T08:29:42;1846.25;;;999.90;;
7239;SDS011;3661;53.288;10.458;2023-08-07T08:32:16;1859.25;;;999.90;;
7239;SDS011;3661;53.288;10.458;2023-08-07T08:34:48;1844.28;;;999.90;;
7239;SDS011;3661;53.288;10.458;2023-08-07T08:37:20;1843.90;;;999.90;;
7239;SDS011;3661;53.288;10.458;2023-08-07T08:39:52;1838.60;;;999.90;;
7239;SDS011;3661;53.288;10.458;2023-08-07T08:42:25;1866.40;;;999.90;;
7239;SDS011;3661;53.288;10.458;2023-08-07T08:44:57;1856.93;;;999.90;;
7239;SDS011;3661;53.288;10.458;2023-08-07T08:47:32;1851.93;;;999.90;;
7239;SDS011;3661;53.288;10.458;2023-08-07T08:50:07;1855.55;;;999.90;;
7239;SDS011;3661;53.288;10.458;2023-08-07T08:52:43;1846.37;;;999.90;;
7239;SDS011;3661;53.288;10.458;2023-08-07T08:55:16;1865.97;;;999.90;;
7239;SDS011;3661;53.288;10.458;2023-08-07T08:57:49;1861.95;;;999.90;;
7239;SDS011;3661;53.288;10.458;2023-08-07T09:00:21;1872.43;;;999.90;;
7239;SDS011;3661;53.288;10.458;2023-08-07T09:02:57;1863.63;;;999.90;;
7239;SDS011;3661;53.288;10.458;2023-08-07T09:05:31;1865.33;;;999.90;;
7239;SDS011;3661;53.288;10.458;2023-08-07T09:08:04;1872.00;;;999.90;;
7239;SDS011;3661;53.288;10.458;2023-08-07T09:10:36;1869.40;;;999.90;;
7239;SDS011;3661;53.288;10.458;2023-08-07T09:13:10;1866.23;;;999.90;;
7239;SDS011;3661;53.288;10.458;2023-08-07T09:15:46;1867.68;;;999.90;;
7239;SDS011;3661;53.288;10.458;2023-08-07T09:18:22;1855.97;;;999.90;;
7239;SDS011;3661;53.288;10.458;2023-08-07T09:20:54;1869.15;;;999.90;;
7239;SDS011;3661;53.288;10.458;2023-08-07T09:23:28;1881.60;;;999.90;;
7239;SDS011;3661;53.288;10.458;2023-08-07T09:26:00;1873.43;;;999.90;;
7239;SDS011;3661;53.288;10.458;2023-08-07T09:28:34;1895.20;;;999.90;;
7239;SDS011;3661;53.288;10.458;2023-08-07T09:31:07;1906.25;;;999.90;;
7239;SDS011;3661;53.288;10.458;2023-08-07T09:33:41;1918.90;;;999.90;;
7239;SDS011;3661;53.288;10.458;2023-08-07T09:36:14;1920.20;;;999.90;;
7239;SDS011;3661;53.288;10.458;2023-08-07T09:38:50;1917.10;;;999.90;;
7239;SDS011;3661;53.288;10.458;2023-08-07T09:41:22;1932.32;;;999.90;;
7239;SDS011;3661;53.288;10.458;2023-08-07T09:43:55;1944.72;;;999.90;;
7239;SDS011;3661;53.288;10.458;2023-08-07T09:46:27;1963.45;;;999.90;;
7239;SDS011;3661;53.288;10.458;2023-08-07T09:49:02;1952.70;;;999.90;;
7239;SDS011;3661;53.288;10.458;2023-08-07T09:51:40;1974.53;;;999.90;;
7239;SDS011;3661;53.288;10.458;2023-08-07T09:54:14;1980.15;;;999.90;;
7239;SDS011;3661;53.288;10.458;2023-08-07T09:56:46;1989.03;;;999.90;;
7239;SDS011;3661;53.288;10.458;2023-08-07T09:59:18;1999.90;;;999.90;;
7239;SDS011;3661;53.288;10.458;2023-08-07T10:01:51;1999.18;;;999.90;;
7239;SDS011;3661;53.288;10.458;2023-08-07T10:04:25;1999.90;;;999.90;;
7239;SDS011;3661;53.288;10.458;2023-08-07T10:06:58;1999.90;;;999.90;;
7239;SDS011;3661;53.288;10.458;2023-08-07T10:09:32;1999.90;;;999.90;;
7239;SDS011;3661;53.288;10.458;2023-08-07T10:12:05;1999.90;;;999.90;;
7239;SDS011;3661;53.288;10.458;2023-08-07T10:14:38;1999.90;;;999.90;;
7239;SDS011;3661;53.288;10.458;2023-08-07T10:17:11;1999.90;;;999.90;;
7239;SDS011;3661;53.288;10.458;2023-08-07T10:19:45;1999.90;;;999.90;;
7239;SDS011;3661;53.288;10.458;2023-08-07T10:22:19;1999.90;;;999.90;;
7239;SDS011;3661;53.288;10.458;2023-08-07T10:24:52;1999.90;;;999.90;;
7239;SDS011;3661;53.288;10.458;2023-08-07T10:27:25;1999.90;;;999.90;;
7239;SDS011;3661;53.288;10.458;2023-08-07T10:30:00;1999.90;;;999.90;;
7239;SDS011;3661;53.288;10.458;2023-08-07T10:32:35;1999.90;;;999.90;;
7239;SDS011;3661;53.288;10.458;2023-08-07T10:35:10;1999.90;;;999.90;;
7239;SDS011;3661;53.288;10.458;2023-08-07T10:37:55;1999.90;;;999.90;;
7239;SDS011;3661;53.288;10.458;2023-08-07T10:43:30;1999.90;;;999.90;;
7239;SDS011;3661;53.288;10.458;2023-08-07T10:46:02;1999.90;;;999.90;;
7239;SDS011;3661;53.288;10.458;2023-08-07T10:48:39;1999.90;;;999.90;;
7239;SDS011;3661;53.288;10.458;2023-08-07T10:51:15;1999.90;;;999.90;;
7239;SDS011;3661;53.288;10.458;2023-08-07T10:53:48;1999.90;;;999.90;;
7239;SDS011;3661;53.288;10.458;2023-08-07T10:56:29;1999.90;;;999.90;;
7239;SDS011;3661;53.288;10.458;2023-08-07T10:59:07;1999.90;;;999.90;;
7239;SDS011;3661;53.288;10.458;2023-08-07T11:01:40;1999.90;;;999.90;;
7239;SDS011;3661;53.288;10.458;2023-08-07T11:04:13;1999.90;;;999.90;;
7239;SDS011;3661;53.288;10.458;2023-08-07T11:06:47;1999.90;;;999.90;;
7239;SDS011;3661;53.288;10.458;2023-08-07T11:09:20;1999.90;;;999.90;;
7239;SDS011;3661;53.288;10.458;2023-08-07T11:11:52;1999.90;;;999.90;;
7239;SDS011;3661;53.288;10.458;2023-08-07T11:14:25;1999.90;;;999.90;;
7239;SDS011;3661;53.288;10.458;2023-08-07T11:16:57;1999.90;;;999.90;;
7239;SDS011;3661;53.288;10.458;2023-08-07T11:19:30;1999.90;;;999.90;;
7239;SDS011;3661;53.288;10.458;2023-08-07T11:22:03;1999.90;;;999.90;;
7239;SDS011;3661;53.288;10.458;2023-08-07T11:24:36;1999.90;;;999.90;;
7239;SDS011;3661;53.288;10.458;2023-08-07T11:27:09;1999.90;;;999.90;;
7239;SDS011;3661;53.288;10.458;2023-08-07T11:29:45;1999.90;;;999.90;;
7239;SDS011;3661;53.288;10.458;2023-08-07T11:32:20;1999.90;;;999.90;;
7239;SDS011;3661;53.288;10.458;2023-08-07T11:34:53;1999.90;;;999.90;;
7239;SDS011;3661;53.288;10.458;2023-08-07T11:37:26;1999.90;;;999.90;;
7239;SDS011;3661;53.288;10.458;2023-08-07T11:40:00;1999.90;;;999.90;;
7239;SDS011;3661;53.288;10.458;2023-08-07T11:42:33;1999.90;;;999.90;;
7239;SDS011;3661;53.288;10.458;2023-08-07T11:45:05;1999.90;;;999.90;;
7239;SDS011;3661;53.288;10.458;2023-08-07T11:47:38;1999.90;;;999.90;;
7239;SDS011;3661;53.288;10.458;2023-08-07T11:50:11;1999.90;;;999.90;;
7239;SDS011;3661;53.288;10.458;2023-08-07T11:52:47;1999.90;;;999.90;;
7239;SDS011;3661;53.288;10.458;2023-08-07T11:55:19;1999.90;;;999.90;;
7239;SDS011;3661;53.288;10.458;2023-08-07T11:57:51;1999.90;;;999.90;;
7239;SDS011;3661;53.288;10.458;2023-08-07T12:00:25;1999.90;;;999.90;;
7239;SDS011;3661;53.288;10.458;2023-08-07T12:03:00;1999.90;;;999.90;;
7239;SDS011;3661;53.288;10.458;2023-08-07T12:05:37;1999.90;;;999.90;;
7239;SDS011;3661;53.288;10.458;2023-08-07T12:08:12;1999.90;;;999.90;;
7239;SDS011;3661;53.288;10.458;2023-08-07T12:10:45;1999.90;;;999.90;;
7239;SDS011;3661;53.288;10.458;2023-08-07T12:13:23;1999.90;;;999.90;;
7239;SDS011;3661;53.288;10.458;2023-08-07T12:15:57;1999.90;;;999.90;;
7239;SDS011;3661;53.288;10.458;2023-08-07T12:18:32;1999.90;;;999.90;;
7239;SDS011;3661;53.288;10.458;2023-08-07T12:21:06;1999.90;;;999.90;;
7239;SDS011;3661;53.288;10.458;2023-08-07T12:23:40;1999.90;;;999.90;;
7239;SDS011;3661;53.288;10.458;2023-08-07T12:26:12;1999.90;;;999.90;;
7239;SDS011;3661;53.288;10.458;2023-08-07T12:28:45;1999.90;;;999.90;;
7239;SDS011;3661;53.288;10.458;2023-08-07T12:31:17;1999.90;;;999.90;;
7239;SDS011;3661;53.288;10.458;2023-08-07T12:33:50;1999.90;;;999.90;;
7239;SDS011;3661;53.288;10.458;2023-08-07T12:36:22;1999.90;;;999.90;;
7239;SDS011;3661;53.288;10.458;2023-08-07T12:38:55;1999.90;;;999.90;;
7239;SDS011;3661;53.288;10.458;2023-08-07T12:41:28;1999.90;;;999.90;;
7239;SDS011;3661;53.288;10.458;2023-08-07T12:44:00;1999.90;;;999.90;;
7239;SDS011;3661;53.288;10.458;2023-08-07T12:46:32;1999.90;;;999.90;;
7239;SDS011;3661;53.288;10.458;2023-08-07T12:49:04;1999.90;;;999.90;;
7239;SDS011;3661;53.288;10.458;2023-08-07T12:51:37;1999.90;;;999.90;;
7239;SDS011;3661;53.288;10.458;2023-08-07T12:54:10;1999.90;;;999.90;;
7239;SDS011;3661;53.288;10.458;2023-08-07T12:56:43;1999.90;;;999.90;;
7239;SDS011;3661;53.288;10.458;2023-08-07T12:59:15;1999.90;;;999.90;;
7239;SDS011;3661;53.288;10.458;2023-08-07T13:01:47;1999.90;;;999.90;;
7239;SDS011;3661;53.288;10.458;2023-08-07T13:04:19;1999.90;;;999.90;;
7239;SDS011;3661;53.288;10.458;2023-08-07T13:06:51;1999.90;;;999.90;;
7239;SDS011;3661;53.288;10.458;2023-08-07T13:09:25;1999.90;;;999.90;;
7239;SDS011;3661;53.288;10.458;2023-08-07T13:11:57;1999.90;;;999.90;;
7239;SDS011;3661;53.288;10.458;2023-08-07T13:14:29;1999.90;;;999.90;;
7239;SDS011;3661;53.288;10.458;2023-08-07T13:17:01;1999.90;;;999.90;;
7239;SDS011;3661;53.288;10.458;2023-08-07T13:19:33;1999.90;;;999.90;;
7239;SDS011;3661;53.288;10.458;2023-08-07T13:22:06;1999.90;;;999.90;;
7239;SDS011;3661;53.288;10.458;2023-08-07T13:24:40;1999.90;;;999.90;;
7239;SDS011;3661;53.288;10.458;2023-08-07T13:27:13;1999.90;;;999.90;;
7239;SDS011;3661;53.288;10.458;2023-08-07T13:29:45;1999.90;;;999.90;;
7239;SDS011;3661;53.288;10.458;2023-08-07T13:32:21;1999.90;;;999.90;;
7239;SDS011;3661;53.288;10.458;2023-08-07T13:34:53;1999.90;;;999.90;;
7239;SDS011;3661;53.288;10.458;2023-08-07T13:37:25;1999.90;;;999.90;;
7239;SDS011;3661;53.288;10.458;2023-08-07T13:39:58;1999.90;;;999.90;;
7239;SDS011;3661;53.288;10.458;2023-08-07T13:42:30;1999.90;;;999.90;;
7239;SDS011;3661;53.288;10.458;2023-08-07T13:45:03;1999.90;;;999.90;;
7239;SDS011;3661;53.288;10.458;2023-08-07T13:47:35;1999.90;;;999.90;;
7239;SDS011;3661;53.288;10.458;2023-08-07T13:50:09;1999.90;;;999.90;;
7239;SDS011;3661;53.288;10.458;2023-08-07T13:52:42;1999.90;;;999.90;;
7239;SDS011;3661;53.288;10.458;2023-08-07T13:55:16;1999.90;;;999.90;;
7239;SDS011;3661;53.288;10.458;2023-08-07T13:57:48;1999.90;;;999.90;;
7239;SDS011;3661;53.288;10.458;2023-08-07T14:00:20;1999.90;;;999.90;;
7239;SDS011;3661;53.288;10.458;2023-08-07T14:02:54;1999.90;;;999.90;;
7239;SDS011;3661;53.288;10.458;2023-08-07T14:05:26;1999.90;;;999.90;;
7239;SDS011;3661;53.288;10.458;2023-08-07T14:07:58;1999.90;;;999.90;;
7239;SDS011;3661;53.288;10.458;2023-08-07T14:10:32;1999.90;;;999.90;;
7239;SDS011;3661;53.288;10.458;2023-08-07T14:13:04;1999.90;;;999.90;;
7239;SDS011;3661;53.288;10.458;2023-08-07T14:15:36;1999.90;;;999.90;;
7239;SDS011;3661;53.288;10.458;2023-08-07T14:18:08;1999.90;;;999.90;;
7239;SDS011;3661;53.288;10.458;2023-08-07T14:20:41;1999.90;;;999.90;;
7239;SDS011;3661;53.288;10.458;2023-08-07T14:23:13;1999.90;;;999.90;;
7239;SDS011;3661;53.288;10.458;2023-08-07T14:25:47;1999.90;;;999.90;;
7239;SDS011;3661;53.288;10.458;2023-08-07T14:28:20;1999.90;;;999.90;;
7239;SDS011;3661;53.288;10.458;2023-08-07T14:30:53;1999.90;;;999.90;;
7239;SDS011;3661;53.288;10.458;2023-08-07T14:33:25;1999.90;;;999.90;;